Time;durP1;ratioP1;P1;durP2;ratioP2;P2;SDS_P1;SDS_P2;PMS_P1;PMS_P2;Temp;Humidity;BMP_temperature;BMP_pressure;BME280_temperature;BME280_humidity;BME280_pressure;Samples;Min_cycle;Max_cycle;Signal;HPM_P1;HPM_P2
2022/11/08 00:01:30;;;;;;;9.50;2.55;;;14.40;90.00;;;;;;5024393;28;20588;-75
2022/11/08 00:03:56;;;;;;;6.32;1.80;;;14.30;90.10;;;;;;5019059;28;20135;-75
2022/11/08 00:14:36;;;;;;;14.55;2.88;;;14.40;86.60;;;;;;5014949;28;20049;-75
2022/11/08 00:17:02;;;;;;;9.73;2.05;;;14.30;88.30;;;;;;5021871;28;20030;-76
2022/11/08 00:19:27;;;;;;;8.02;2.38;;;14.30;88.70;;;;;;5012206;28;20047;-75
2022/11/08 00:21:53;;;;;;;9.70;1.90;;;14.30;87.40;;;;;;5014907;28;20132;-76
2022/11/08 00:24:19;;;;;;;13.10;2.95;;;14.30;87.90;;;;;;5018882;28;20061;-76
2022/11/08 00:26:44;;;;;;;10.07;1.98;;;14.30;88.60;;;;;;5013315;28;20502;-75
2022/11/08 00:29:10;;;;;;;5.63;2.47;;;14.30;88.60;;;;;;5030252;28;20057;-74
2022/11/08 00:31:36;;;;;;;6.47;1.95;;;14.30;88.10;;;;;;5016175;28;20049;-75
2022/11/08 00:34:05;;;;;;;11.40;2.63;;;14.30;86.50;;;;;;5025250;28;20144;-75
2022/11/08 00:36:30;;;;;;;15.50;2.55;;;14.20;89.20;;;;;;5015652;28;20032;-77
2022/11/08 00:38:56;;;;;;;11.57;2.97;;;14.10;89.00;;;;;;5029559;28;20029;-75
2022/11/08 00:41:21;;;;;;;10.55;2.40;;;14.10;89.40;;;;;;5011092;28;20156;-75
2022/11/08 00:43:48;;;;;;;12.90;3.00;;;14.10;90.20;;;;;;5026195;28;20083;-75
2022/11/08 00:46:13;;;;;;;8.10;2.42;;;14.10;89.80;;;;;;5013641;28;20024;-74
2022/11/08 00:48:39;;;;;;;6.97;2.28;;;14.10;89.50;;;;;;5023593;28;20029;-74
2022/11/08 00:51:08;;;;;;;14.27;3.67;;;14.00;89.10;;;;;;5023279;28;20026;-75
2022/11/08 00:53:37;;;;;;;12.07;2.55;;;14.00;90.40;;;;;;5022864;28;20472;-74
2022/11/08 00:56:06;;;;;;;12.23;2.40;;;14.00;90.00;;;;;;5010879;28;20100;-75
2022/11/08 00:58:34;;;;;;;6.53;1.98;;;14.00;90.00;;;;;;5026807;28;20033;-75
2022/11/08 01:01:00;;;;;;;8.85;1.73;;;14.00;88.60;;;;;;5032304;28;20040;-74
2022/11/08 01:03:26;;;;;;;11.07;2.58;;;14.00;87.30;;;;;;5022258;28;20022;-75
2022/11/08 01:05:53;;;;;;;8.88;2.35;;;13.90;88.20;;;;;;5012882;28;20485;-75
2022/11/08 01:08:21;;;;;;;11.68;2.58;;;13.90;90.10;;;;;;5016056;28;20692;-76
2022/11/08 01:10:49;;;;;;;5.85;2.25;;;13.90;88.70;;;;;;5021173;28;20048;-75
2022/11/08 01:13:16;;;;;;;14.23;2.75;;;13.90;87.70;;;;;;5011625;28;20051;-74
2022/11/08 01:15:43;;;;;;;9.50;2.50;;;13.90;89.60;;;;;;5017740;28;20026;-74
2022/11/08 01:18:10;;;;;;;8.63;2.65;;;13.90;89.80;;;;;;5010945;28;20025;-74
2022/11/08 01:20:43;;;;;;;7.07;2.10;;;13.90;90.10;;;;;;5024735;28;20756;-74
2022/11/08 01:23:10;;;;;;;9.63;2.63;;;13.80;89.90;;;;;;5015427;28;20088;-76
2022/11/08 01:25:42;;;;;;;12.82;3.58;;;13.80;89.50;;;;;;5022249;28;20041;-75
2022/11/08 01:28:08;;;;;;;8.75;2.75;;;13.70;90.00;;;;;;5023648;28;20037;-75
2022/11/08 01:30:39;;;;;;;7.60;2.45;;;13.70;90.40;;;;;;5018425;28;20033;-74
2022/11/08 01:33:11;;;;;;;12.70;2.97;;;13.60;90.10;;;;;;5016260;28;20032;-76
2022/11/08 01:35:38;;;;;;;14.70;3.35;;;13.60;90.50;;;;;;5018885;28;20029;-76
2022/11/08 01:38:05;;;;;;;13.77;3.63;;;13.60;90.70;;;;;;5013384;28;20483;-74
2022/11/08 01:40:31;;;;;;;7.85;2.03;;;13.60;90.70;;;;;;5026103;28;20499;-74
2022/11/08 01:42:57;;;;;;;8.65;2.22;;;13.60;90.50;;;;;;5024067;28;20038;-75
2022/11/08 01:46:04;;;;;;;8.00;1.90;;;13.60;90.40;;;;;;5015306;28;20442;-74
2022/11/08 01:48:30;;;;;;;10.38;2.92;;;13.50;89.60;;;;;;5011356;28;20046;-75
2022/11/08 01:50:59;;;;;;;6.40;2.42;;;13.50;90.70;;;;;;5024667;28;20026;-74
2022/11/08 01:53:26;;;;;;;7.18;1.88;;;13.40;91.50;;;;;;5018960;28;20396;-76
2022/11/08 01:55:53;;;;;;;12.27;3.65;;;13.40;90.60;;;;;;5022140;28;20029;-75
2022/11/08 01:58:24;;;;;;;6.60;2.22;;;13.40;90.50;;;;;;5016926;28;20033;-74
2022/11/08 02:00:51;;;;;;;12.60;2.78;;;13.40;90.50;;;;;;5017611;28;20034;-75
2022/11/08 02:03:19;;;;;;;7.20;2.35;;;13.40;90.40;;;;;;5016237;28;20049;-74
2022/11/08 02:05:46;;;;;;;6.13;1.63;;;13.50;90.20;;;;;;5018065;28;20033;-76
2022/11/08 02:08:20;;;;;;;5.43;1.42;;;13.40;89.90;;;;;;5012263;28;20670;-75
2022/11/08 02:10:50;;;;;;;9.60;2.22;;;13.50;89.30;;;;;;5013565;28;20032;-75
2022/11/08 02:13:22;;;;;;;18.63;3.83;;;13.50;89.20;;;;;;5009340;28;20058;-75
2022/11/08 02:15:48;;;;;;;10.30;3.00;;;13.40;90.80;;;;;;5016150;28;20164;-74
2022/11/08 02:18:15;;;;;;;10.80;2.38;;;13.50;90.20;;;;;;5028040;28;20104;-75
2022/11/08 02:20:49;;;;;;;13.25;2.97;;;13.40;91.00;;;;;;5024688;28;20511;-76
2022/11/08 02:23:25;;;;;;;10.20;3.97;;;13.40;90.60;;;;;;5018789;28;20042;-75
2022/11/08 02:25:51;;;;;;;5.65;2.13;;;13.30;91.20;;;;;;5023001;28;20033;-73
2022/11/08 02:28:18;;;;;;;8.25;2.15;;;13.30;90.50;;;;;;5026300;28;20047;-74
2022/11/08 02:30:44;;;;;;;13.55;3.13;;;13.30;90.40;;;;;;5011686;28;20045;-74
2022/11/08 02:33:21;;;;;;;10.82;2.75;;;13.30;90.70;;;;;;5020027;28;20033;-75
2022/11/08 02:35:53;;;;;;;6.97;2.13;;;13.30;91.10;;;;;;5017721;28;20033;-74
2022/11/08 02:38:19;;;;;;;9.20;2.92;;;13.30;90.80;;;;;;5022962;28;20483;-73
2022/11/08 02:40:47;;;;;;;7.80;2.08;;;13.30;91.10;;;;;;5009465;28;20034;-74
2022/11/08 02:43:12;;;;;;;5.53;1.80;;;13.30;90.70;;;;;;5020835;28;20120;-74
2022/11/08 02:45:39;;;;;;;13.32;2.90;;;13.30;90.80;;;;;;5012276;28;20041;-74
2022/11/08 02:48:05;;;;;;;14.57;3.10;;;13.40;90.20;;;;;;5016070;28;20476;-74
2022/11/08 02:50:31;;;;;;;7.72;2.08;;;13.30;91.00;;;;;;5008497;28;20030;-75
2022/11/08 02:52:57;;;;;;;6.10;1.80;;;13.40;90.00;;;;;;5022816;28;20044;-74
2022/11/08 02:55:22;;;;;;;8.77;2.53;;;13.30;90.20;;;;;;5009708;28;20025;-75
2022/11/08 02:57:48;;;;;;;6.68;1.90;;;13.30;91.10;;;;;;5017138;28;20029;-74
2022/11/08 03:00:14;;;;;;;5.88;1.75;;;13.30;90.90;;;;;;5021675;28;20037;-75
2022/11/08 03:02:40;;;;;;;11.00;2.67;;;13.30;90.60;;;;;;5011895;28;20116;-75
2022/11/08 03:05:06;;;;;;;10.32;2.92;;;13.30;90.80;;;;;;5023953;28;21797;-74
2022/11/08 03:07:31;;;;;;;11.40;2.45;;;13.30;90.80;;;;;;5024919;28;20064;-75
2022/11/08 03:09:58;;;;;;;9.85;2.55;;;13.30;90.80;;;;;;5017031;28;20025;-75
2022/11/08 03:12:30;;;;;;;9.07;1.88;;;13.20;90.60;;;;;;5015733;28;20025;-75
2022/11/08 03:14:55;;;;;;;7.55;2.63;;;13.20;90.50;;;;;;5018252;28;20718;-75
2022/11/08 03:17:21;;;;;;;7.18;1.98;;;13.20;90.70;;;;;;5019351;28;20116;-74
2022/11/08 03:19:46;;;;;;;12.48;2.83;;;13.20;90.40;;;;;;5018032;28;20042;-75
2022/11/08 03:22:12;;;;;;;11.13;2.75;;;13.20;90.70;;;;;;5020605;28;20030;-74
2022/11/08 03:24:38;;;;;;;8.38;2.03;;;13.10;90.70;;;;;;5029108;28;20128;-73
2022/11/08 03:27:03;;;;;;;3.90;1.60;;;13.10;90.40;;;;;;5019154;28;20018;-74
2022/11/08 03:29:29;;;;;;;8.32;1.90;;;13.10;90.20;;;;;;5026027;28;20862;-75
2022/11/08 03:31:55;;;;;;;9.85;3.13;;;13.10;90.40;;;;;;5021194;28;20022;-74
2022/11/08 03:34:20;;;;;;;6.50;2.10;;;13.10;90.40;;;;;;5024947;28;20037;-74
2022/11/08 03:36:46;;;;;;;8.13;2.00;;;13.00;90.50;;;;;;5023617;28;20048;-74
2022/11/08 03:39:11;;;;;;;9.38;2.67;;;13.00;90.20;;;;;;5023635;28;20110;-75
2022/11/08 03:41:38;;;;;;;12.43;3.05;;;13.00;90.10;;;;;;5027377;28;20030;-74
2022/11/08 03:44:03;;;;;;;9.35;2.22;;;13.00;90.30;;;;;;5026297;28;20030;-74
2022/11/08 03:46:29;;;;;;;6.05;2.45;;;13.00;90.70;;;;;;5017144;28;20033;-74
2022/11/08 03:48:55;;;;;;;8.57;2.35;;;13.00;90.90;;;;;;5021950;28;20025;-75
2022/11/08 03:51:20;;;;;;;9.40;2.50;;;13.00;90.40;;;;;;5016561;28;20018;-75
2022/11/08 03:53:46;;;;;;;8.77;2.28;;;13.00;90.90;;;;;;5021912;28;20075;-75
2022/11/08 03:56:11;;;;;;;10.05;2.20;;;13.00;90.60;;;;;;5010962;28;20143;-75
2022/11/08 03:58:37;;;;;;;6.60;2.50;;;13.00;91.10;;;;;;5016822;28;20105;-75
2022/11/08 04:01:06;;;;;;;8.38;2.40;;;12.90;90.70;;;;;;5021193;28;20061;-75
2022/11/08 04:03:32;;;;;;;7.80;2.00;;;12.90;90.10;;;;;;5011781;28;20030;-75
2022/11/08 04:06:02;;;;;;;6.90;2.33;;;13.00;90.10;;;;;;5021753;28;20021;-74
2022/11/08 04:08:28;;;;;;;;;;;12.90;90.40;;;;;;5025269;28;20036;-75
2022/11/08 04:10:55;;;;;;;6.05;2.40;;;13.00;89.70;;;;;;5016966;28;19940;-75
2022/11/08 04:16:06;;;;;;;10.60;1.92;;;12.90;90.50;;;;;;5018659;28;20127;-75
2022/11/08 04:21:18;;;;;;;8.48;2.28;;;12.90;90.40;;;;;;5026035;28;20412;-75
2022/11/08 04:23:44;;;;;;;7.72;1.70;;;12.90;90.20;;;;;;5028784;28;20045;-75
2022/11/08 04:26:11;;;;;;;6.53;2.13;;;12.80;90.30;;;;;;5026603;28;20053;-75
2022/11/08 04:28:39;;;;;;;8.23;2.72;;;12.80;90.40;;;;;;5021963;28;20018;-75
2022/11/08 04:31:07;;;;;;;5.85;2.38;;;12.80;90.60;;;;;;5022909;28;20093;-75
2022/11/08 04:33:33;;;;;;;8.43;2.00;;;12.70;91.30;;;;;;5023173;28;20032;-74
2022/11/08 04:36:05;;;;;;;6.22;1.65;;;12.80;90.70;;;;;;5021488;28;20029;-75
2022/11/08 04:38:31;;;;;;;7.80;2.00;;;12.80;90.20;;;;;;5015801;28;20113;-74
2022/11/08 04:41:03;;;;;;;8.10;1.55;;;12.70;90.20;;;;;;5017100;28;20034;-75
2022/11/08 04:43:29;;;;;;;8.05;1.95;;;12.70;90.40;;;;;;5015601;28;20034;-74
2022/11/08 04:46:18;;;;;;;5.70;1.45;;;12.70;90.40;;;;;;5017559;28;20028;-74
2022/11/08 04:48:44;;;;;;;5.82;1.95;;;12.70;90.10;;;;;;5014364;28;20030;-74
2022/11/08 04:51:16;;;;;;;7.07;1.75;;;12.60;90.40;;;;;;5016454;28;20079;-75
2022/11/08 04:53:42;;;;;;;10.05;2.08;;;12.60;90.10;;;;;;5023343;28;20121;-74
2022/11/08 04:56:10;;;;;;;7.25;1.60;;;12.70;90.20;;;;;;5018160;28;20108;-76
2022/11/08 04:58:47;;;;;;;4.63;1.60;;;12.60;90.20;;;;;;5023205;28;20022;-76
2022/11/08 05:01:16;;;;;;;7.63;2.15;;;12.60;90.50;;;;;;5016836;28;20079;-76
2022/11/08 05:03:43;;;;;;;9.77;2.10;;;12.60;90.70;;;;;;5015379;28;20053;-75
2022/11/08 05:06:14;;;;;;;5.45;1.65;;;12.60;90.40;;;;;;5023734;28;20036;-74
2022/11/08 05:08:40;;;;;;;8.35;2.40;;;12.60;90.20;;;;;;5021836;28;20079;-74
2022/11/08 05:11:09;;;;;;;7.65;2.17;;;12.60;90.00;;;;;;5013286;28;20112;-75
2022/11/08 05:13:35;;;;;;;7.57;2.60;;;12.70;90.10;;;;;;5016322;28;20035;-75
2022/11/08 05:16:12;;;;;;;6.55;2.10;;;12.70;89.90;;;;;;5010109;28;20022;-75
2022/11/08 05:18:38;;;;;;;7.57;2.25;;;12.60;90.10;;;;;;5013747;28;20022;-74
2022/11/08 05:23:49;;;;;;;7.55;1.67;;;12.60;90.00;;;;;;5021295;28;20057;-75
2022/11/08 05:26:16;;;;;;;6.88;1.83;;;12.60;90.00;;;;;;5011695;28;20033;-74
2022/11/08 05:28:42;;;;;;;6.15;2.55;;;12.60;90.20;;;;;;5023046;28;20750;-74
2022/11/08 05:31:08;;;;;;;8.35;2.33;;;12.60;90.00;;;;;;5020093;28;20028;-75
2022/11/08 05:33:34;;;;;;;4.43;1.63;;;12.50;89.80;;;;;;5021408;28;20034;-74
2022/11/08 05:36:01;;;;;;;8.32;2.17;;;12.50;90.20;;;;;;5012485;28;20026;-74
2022/11/08 05:38:28;;;;;;;7.45;2.05;;;12.50;90.00;;;;;;5028946;28;20807;-75
2022/11/08 05:40:54;;;;;;;5.70;1.50;;;12.50;89.50;;;;;;5015034;28;20036;-75
2022/11/08 05:43:20;;;;;;;5.93;2.00;;;12.50;89.10;;;;;;5017951;28;20021;-74
2022/11/08 05:45:45;;;;;;;4.82;2.03;;;12.60;90.00;;;;;;5013908;28;20045;-73
2022/11/08 05:48:11;;;;;;;5.18;2.33;;;12.60;88.80;;;;;;5018343;28;20021;-77
2022/11/08 05:50:37;;;;;;;6.10;2.70;;;12.50;89.60;;;;;;5013562;28;20057;-74
2022/11/08 05:53:03;;;;;;;8.70;1.77;;;12.60;89.60;;;;;;5013635;28;20399;-75
2022/11/08 05:55:28;;;;;;;5.93;2.17;;;12.60;89.10;;;;;;5027262;28;20053;-74
2022/11/08 05:57:54;;;;;;;8.90;3.28;;;12.60;89.20;;;;;;5028452;28;20076;-75
2022/11/08 06:00:21;;;;;;;5.63;1.90;;;12.60;90.00;;;;;;5025036;28;20037;-75
2022/11/08 06:02:46;;;;;;;5.78;1.67;;;12.60;89.30;;;;;;5019877;28;20100;-74
2022/11/08 06:05:12;;;;;;;7.93;2.28;;;12.60;88.40;;;;;;5019766;28;20022;-75
2022/11/08 06:07:38;;;;;;;7.97;2.28;;;12.60;89.20;;;;;;5014049;28;20488;-74
2022/11/08 06:10:05;;;;;;;3.67;1.60;;;12.60;89.80;;;;;;5017941;28;20017;-74
2022/11/08 06:12:31;;;;;;;6.03;2.15;;;12.60;89.10;;;;;;5009819;28;20839;-75
2022/11/08 06:14:57;;;;;;;5.80;1.63;;;12.60;89.40;;;;;;5026471;28;20530;-75
2022/11/08 06:17:22;;;;;;;6.95;1.85;;;12.50;90.00;;;;;;5020970;28;20034;-75
2022/11/08 06:19:48;;;;;;;4.57;1.63;;;12.50;89.50;;;;;;5019889;28;20044;-73
2022/11/08 06:22:14;;;;;;;5.10;1.70;;;12.50;89.70;;;;;;5025429;28;20018;-75
2022/11/08 06:24:42;;;;;;;6.78;2.17;;;12.50;90.10;;;;;;5021604;28;20218;-75
2022/11/08 06:27:08;;;;;;;9.13;3.75;;;12.50;89.90;;;;;;5013211;28;20033;-74
2022/11/08 06:29:34;;;;;;;8.45;2.10;;;12.50;89.60;;;;;;5021630;28;20021;-74
2022/11/08 06:32:03;;;;;;;6.57;2.22;;;12.50;89.30;;;;;;5021300;28;20033;-75
2022/11/08 06:34:29;;;;;;;4.63;1.80;;;12.50;90.10;;;;;;5015840;28;20044;-75
2022/11/08 06:36:57;;;;;;;6.05;1.95;;;12.50;89.90;;;;;;5018024;28;20034;-74
2022/11/08 06:39:23;;;;;;;5.93;2.42;;;12.50;89.80;;;;;;5022168;28;20026;-74
2022/11/08 06:41:50;;;;;;;5.50;2.03;;;12.50;89.60;;;;;;5017715;28;20033;-74
2022/11/08 06:44:15;;;;;;;7.43;2.72;;;12.40;90.20;;;;;;5011592;28;20017;-73
2022/11/08 06:46:41;;;;;;;5.13;1.75;;;12.50;89.20;;;;;;5027273;28;20035;-72
2022/11/08 06:49:07;;;;;;;9.20;1.98;;;12.60;88.20;;;;;;5015257;28;20030;-73
2022/11/08 06:51:32;;;;;;;5.78;1.58;;;12.60;87.90;;;;;;5026176;28;20047;-74
2022/11/08 06:54:02;;;;;;;5.18;1.90;;;12.60;87.70;;;;;;5012627;28;20048;-73
2022/11/08 06:56:28;;;;;;;9.00;2.78;;;12.60;88.00;;;;;;5019175;28;20528;-75
2022/11/08 06:58:53;;;;;;;7.72;2.25;;;12.70;88.00;;;;;;5011957;28;20173;-74
2022/11/08 07:01:19;;;;;;;9.05;2.20;;;12.70;88.20;;;;;;5023902;28;20029;-74
2022/11/08 07:03:46;;;;;;;7.03;1.83;;;12.70;88.20;;;;;;5019640;28;20029;-74
2022/11/08 07:06:11;;;;;;;10.65;2.33;;;12.70;88.60;;;;;;5021877;28;20644;-74
2022/11/08 07:08:37;;;;;;;6.68;2.45;;;12.60;88.60;;;;;;5025342;28;20105;-74
2022/11/08 07:11:03;;;;;;;5.72;1.98;;;12.60;88.70;;;;;;5018164;28;20025;-76
2022/11/08 07:13:28;;;;;;;8.07;2.75;;;12.70;88.30;;;;;;5025071;28;20057;-73
2022/11/08 07:15:58;;;;;;;9.18;2.40;;;12.70;88.80;;;;;;5015257;28;20026;-75
2022/11/08 07:18:25;;;;;;;7.65;1.65;;;12.80;88.70;;;;;;5015880;28;20022;-72
2022/11/08 07:20:51;;;;;;;6.45;2.38;;;13.10;87.00;;;;;;5013997;28;20040;-73
2022/11/08 07:23:19;;;;;;;11.38;2.13;;;13.30;85.60;;;;;;5010238;28;20037;-75
2022/11/08 07:25:45;;;;;;;5.30;1.75;;;13.60;84.60;;;;;;5019494;28;20013;-75
2022/11/08 07:28:16;;;;;;;8.23;2.38;;;13.70;84.40;;;;;;5010344;28;20033;-74
2022/11/08 07:30:42;;;;;;;7.05;1.77;;;13.70;84.50;;;;;;5021871;28;20051;-75
2022/11/08 07:33:07;;;;;;;5.50;1.83;;;13.70;84.10;;;;;;5022328;28;20399;-75
2022/11/08 07:35:33;;;;;;;4.75;1.90;;;13.60;84.30;;;;;;5018044;28;20041;-75
2022/11/08 07:38:01;;;;;;;7.85;2.22;;;13.60;84.60;;;;;;5027168;28;20020;-76
2022/11/08 07:40:28;;;;;;;5.50;1.63;;;13.50;85.10;;;;;;5026130;28;20038;-75
2022/11/08 07:42:58;;;;;;;6.82;2.42;;;13.60;84.90;;;;;;5027308;28;20082;-77
2022/11/08 07:45:24;;;;;;;6.85;2.22;;;13.60;85.20;;;;;;5016258;28;20029;-75
2022/11/08 07:48:00;;;;;;;5.35;1.77;;;13.70;85.20;;;;;;5027179;28;20152;-77
2022/11/08 07:50:27;;;;;;;4.10;1.75;;;13.80;84.80;;;;;;5007970;28;20018;-76
2022/11/08 07:52:54;;;;;;;6.53;2.05;;;13.90;83.90;;;;;;5013844;28;20030;-76
2022/11/08 07:55:21;;;;;;;3.80;1.55;;;13.90;83.70;;;;;;5020419;28;20026;-76
2022/11/08 07:57:47;;;;;;;6.32;1.98;;;13.90;83.50;;;;;;5019380;28;20025;-75
2022/11/08 08:00:13;;;;;;;5.63;1.90;;;14.00;83.40;;;;;;5020614;28;20403;-76
2022/11/08 08:02:39;;;;;;;5.82;1.60;;;14.10;83.40;;;;;;5013014;28;20025;-75
2022/11/08 08:05:05;;;;;;;6.13;2.00;;;14.20;82.80;;;;;;5010281;28;20435;-75
2022/11/08 08:07:30;;;;;;;7.82;2.50;;;14.30;82.30;;;;;;5031049;28;20025;-76
2022/11/08 08:09:56;;;;;;;7.65;2.22;;;14.40;81.60;;;;;;5029331;28;20033;-75
2022/11/08 08:12:22;;;;;;;6.68;2.10;;;14.50;81.50;;;;;;5017605;28;20021;-75
2022/11/08 08:14:47;;;;;;;4.35;1.45;;;14.40;80.80;;;;;;5025377;28;20026;-74
2022/11/08 08:17:13;;;;;;;5.30;1.50;;;14.50;81.10;;;;;;5025975;28;20032;-75
2022/11/08 08:19:38;;;;;;;3.92;1.45;;;14.50;80.70;;;;;;5030667;28;20109;-74
2022/11/08 08:22:05;;;;;;;7.30;2.42;;;14.40;80.80;;;;;;5030915;28;20034;-76
2022/11/08 08:24:30;;;;;;;10.52;2.28;;;14.40;81.10;;;;;;5029263;28;20148;-75
2022/11/08 08:26:57;;;;;;;5.53;1.88;;;14.40;81.20;;;;;;5022454;28;20496;-75
2022/11/08 08:29:22;;;;;;;5.82;2.17;;;14.50;81.00;;;;;;5028673;28;20030;-76
2022/11/08 08:31:48;;;;;;;5.53;1.77;;;14.50;80.80;;;;;;5028917;28;20443;-76
2022/11/08 08:34:17;;;;;;;7.35;1.80;;;14.50;80.80;;;;;;5027171;28;20400;-75
2022/11/08 08:36:43;;;;;;;5.40;1.90;;;14.50;80.40;;;;;;5030978;28;20484;-76
2022/11/08 08:39:09;;;;;;;5.65;1.60;;;14.60;80.20;;;;;;5028690;28;20025;-76
2022/11/08 08:41:34;;;;;;;5.18;1.52;;;14.70;80.00;;;;;;5028199;28;20052;-75
2022/11/08 08:44:00;;;;;;;4.60;1.92;;;14.80;78.50;;;;;;5025796;28;20432;-75
2022/11/08 08:46:25;;;;;;;5.07;1.45;;;14.90;78.90;;;;;;5021766;28;20032;-74
2022/11/08 08:48:52;;;;;;;2.58;1.20;;;14.90;77.30;;;;;;5024756;28;20028;-77
2022/11/08 08:51:18;;;;;;;4.03;1.23;;;15.10;77.80;;;;;;5029989;28;20451;-76
2022/11/08 08:53:43;;;;;;;4.80;1.65;;;15.10;77.80;;;;;;5020849;28;20029;-75
2022/11/08 08:56:09;;;;;;;6.63;1.45;;;15.00;76.30;;;;;;5029941;28;20079;-76
2022/11/08 08:58:35;;;;;;;4.75;2.00;;;15.00;77.20;;;;;;5023280;28;20056;-74
2022/11/08 09:01:07;;;;;;;4.95;1.70;;;15.10;77.30;;;;;;5027928;28;20173;-75
2022/11/08 09:03:34;;;;;;;6.55;1.88;;;15.10;75.50;;;;;;5016059;28;20025;-75
2022/11/08 09:06:00;;;;;;;4.10;1.60;;;15.10;77.80;;;;;;5026738;28;20184;-75
2022/11/08 09:08:27;;;;;;;4.95;1.63;;;15.10;76.80;;;;;;5017040;28;20022;-75
2022/11/08 09:10:58;;;;;;;5.55;1.83;;;15.00;76.10;;;;;;5029078;28;20051;-75
2022/11/08 09:13:25;;;;;;;;;;;15.00;75.90;;;;;;5024975;28;20522;-75
2022/11/08 09:15:51;;;;;;;5.95;1.60;;;14.90;77.30;;;;;;5027365;28;19905;-77
2022/11/08 09:18:18;;;;;;;6.88;1.83;;;14.80;76.40;;;;;;5023804;28;20044;-75
2022/11/08 09:20:44;;;;;;;8.80;2.10;;;14.80;77.10;;;;;;5024117;28;20037;-75
2022/11/08 09:23:10;;;;;;;4.93;2.28;;;14.80;77.30;;;;;;5021048;28;20080;-74
2022/11/08 09:25:36;;;;;;;6.13;2.35;;;14.80;77.90;;;;;;5021011;28;20063;-77
2022/11/08 09:28:04;;;;;;;6.93;2.30;;;14.80;76.90;;;;;;5026242;28;20053;-75
2022/11/08 09:30:30;;;;;;;4.85;1.52;;;14.70;76.60;;;;;;5020822;28;20025;-76
2022/11/08 09:32:55;;;;;;;3.55;1.40;;;14.80;78.30;;;;;;5028838;28;20021;-75
2022/11/08 09:35:22;;;;;;;4.10;1.75;;;14.80;78.60;;;;;;5024410;28;20173;-75
2022/11/08 09:37:51;;;;;;;4.78;1.58;;;14.90;77.20;;;;;;5009565;28;20188;-77
2022/11/08 09:40:20;;;;;;;4.72;1.70;;;14.90;78.60;;;;;;5017236;28;20037;-75
2022/11/08 09:43:05;;;;;;;8.65;1.63;;;14.90;76.20;;;;;;5010466;28;20566;-76
2022/11/08 09:45:40;;;;;;;5.20;1.77;;;15.00;78.70;;;;;;5025580;28;20026;-77
2022/11/08 09:48:21;;;;;;;6.13;2.00;;;15.00;78.10;;;;;;5024788;28;20049;-75
2022/11/08 09:50:50;;;;;;;4.63;1.58;;;15.00;77.60;;;;;;5015141;28;20468;-75
2022/11/08 09:53:17;;;;;;;5.60;2.50;;;15.10;77.70;;;;;;5027698;28;21140;-75
2022/11/08 09:55:51;;;;;;;4.53;1.77;;;15.10;75.20;;;;;;5032902;28;20021;-74
2022/11/08 09:58:39;;;;;;;4.80;1.95;;;15.10;76.40;;;;;;5033526;28;20009;-75
2022/11/08 10:01:12;;;;;;;6.13;1.70;;;15.10;77.30;;;;;;5024911;28;20033;-75
2022/11/08 10:03:41;;;;;;;4.63;1.63;;;15.10;76.00;;;;;;5017278;28;20108;-76
2022/11/08 10:06:28;;;;;;;4.38;1.95;;;15.10;77.20;;;;;;5019346;28;20048;-75
2022/11/08 10:09:45;;;;;;;3.03;1.40;;;15.00;76.40;;;;;;5013029;28;20149;-76
2022/11/08 10:12:20;;;;;;;3.47;1.88;;;15.00;78.20;;;;;;4978976;28;20306;-73
2022/11/08 10:15:08;;;;;;;5.50;2.17;;;15.10;77.00;;;;;;4983461;28;20111;-75
2022/11/08 10:18:16;;;;;;;4.65;1.90;;;15.10;77.30;;;;;;5013432;28;20123;-74
2022/11/08 10:21:00;;;;;;;7.50;2.05;;;15.20;77.40;;;;;;5028070;28;20152;-75
2022/11/08 10:23:32;;;;;;;4.35;1.30;;;15.20;76.70;;;;;;5024270;28;20049;-75
2022/11/08 10:26:10;;;;;;;8.30;1.88;;;15.30;77.50;;;;;;5013912;28;20033;-75
2022/11/08 10:28:41;;;;;;;9.20;3.00;;;15.30;76.40;;;;;;5025613;28;20026;-75
2022/11/08 10:31:11;;;;;;;5.78;1.63;;;15.30;75.90;;;;;;5010190;28;20109;-77
2022/11/08 10:33:54;;;;;;;32.92;4.82;;;15.40;76.50;;;;;;5022866;28;20025;-75
2022/11/08 10:36:40;;;;;;;15.45;3.40;;;15.40;75.30;;;;;;5025007;28;20510;-75
2022/11/08 10:39:12;;;;;;;9.88;2.92;;;15.40;75.60;;;;;;5024451;28;20052;-74
2022/11/08 10:41:53;;;;;;;20.52;3.40;;;15.40;75.90;;;;;;5008333;28;20037;-74
2022/11/08 10:44:24;;;;;;;9.82;1.92;;;15.50;76.20;;;;;;5021811;28;20037;-74
2022/11/08 10:46:56;;;;;;;7.20;1.83;;;15.50;75.80;;;;;;5017143;28;20030;-76
2022/11/08 10:49:23;;;;;;;9.60;2.40;;;15.60;76.30;;;;;;5026864;28;20087;-76
2022/11/08 10:51:53;;;;;;;5.30;1.80;;;15.50;74.20;;;;;;5025284;28;20056;-75
2022/11/08 10:54:48;;;;;;;6.90;2.05;;;15.50;75.20;;;;;;5021255;28;20030;-75
2022/11/08 10:57:33;;;;;;;6.85;2.50;;;15.50;75.80;;;;;;5011719;28;20538;-75
2022/11/08 11:00:22;;;;;;;6.70;2.58;;;15.60;75.50;;;;;;5019352;28;20431;-74
2022/11/08 11:02:54;;;;;;;22.73;3.67;;;15.50;75.90;;;;;;5011118;28;20531;-75
2022/11/08 11:05:28;;;;;;;5.50;1.88;;;15.60;75.70;;;;;;5027755;28;20033;-75
2022/11/08 11:07:59;;;;;;;7.13;2.08;;;15.60;76.10;;;;;;5016229;28;20026;-74
2022/11/08 11:10:28;;;;;;;5.32;2.08;;;15.60;76.80;;;;;;5027729;28;20511;-74
2022/11/08 11:13:08;;;;;;;5.85;1.58;;;15.50;75.70;;;;;;5018801;28;20021;-76
2022/11/08 11:15:49;;;;;;;6.18;1.85;;;15.50;76.30;;;;;;5014661;28;20496;-75
2022/11/08 11:18:30;;;;;;;10.23;1.77;;;15.50;75.30;;;;;;5014307;28;20028;-75
2022/11/08 11:21:04;;;;;;;7.82;1.83;;;15.60;75.60;;;;;;5039145;28;20084;-74
2022/11/08 11:23:51;;;;;;;10.95;2.40;;;15.50;75.20;;;;;;5025567;28;20103;-75
2022/11/08 11:26:41;;;;;;;4.80;1.98;;;15.50;75.40;;;;;;5012903;28;20033;-74
2022/11/08 11:29:16;;;;;;;7.28;2.35;;;15.60;77.70;;;;;;5015331;28;20025;-74
2022/11/08 11:31:44;;;;;;;8.15;1.95;;;15.60;76.10;;;;;;5014413;28;20076;-74
2022/11/08 11:34:16;;;;;;;7.57;2.00;;;15.70;76.20;;;;;;5018647;28;20100;-76
2022/11/08 11:36:55;;;;;;;7.03;2.40;;;15.70;75.90;;;;;;5017494;28;20044;-73
2022/11/08 11:39:50;;;;;;;3.28;1.45;;;15.70;75.30;;;;;;5017550;28;20025;-74
2022/11/08 11:42:26;;;;;;;5.20;2.08;;;15.70;75.70;;;;;;5009444;28;20048;-75
2022/11/08 11:45:10;;;;;;;4.50;1.48;;;15.70;75.30;;;;;;5020363;28;20056;-74
2022/11/08 11:47:46;;;;;;;4.80;1.60;;;15.80;75.90;;;;;;5012804;28;20069;-76
2022/11/08 11:50:15;;;;;;;7.00;1.52;;;15.80;75.40;;;;;;5021541;28;20403;-75
2022/11/08 11:52:40;;;;;;;4.80;1.45;;;15.90;75.70;;;;;;5024105;28;20053;-74
2022/11/08 11:55:11;;;;;;;4.40;1.52;;;15.90;75.50;;;;;;5025483;28;20034;-74
2022/11/08 11:58:14;;;;;;;4.45;1.35;;;15.90;74.30;;;;;;5026654;28;20051;-75
2022/11/08 12:00:50;;;;;;;5.13;1.85;;;15.90;75.40;;;;;;5014956;28;20389;-74
2022/11/08 12:03:27;;;;;;;5.82;1.88;;;16.00;74.20;;;;;;5026916;28;20028;-75
2022/11/08 12:06:16;;;;;;;4.70;1.85;;;16.00;74.80;;;;;;5012725;28;20069;-76
2022/11/08 12:09:14;;;;;;;4.05;1.50;;;16.10;74.30;;;;;;5027563;28;20132;-75
2022/11/08 12:12:05;;;;;;;7.78;2.45;;;16.20;73.90;;;;;;5023886;28;20022;-73
2022/11/08 12:15:01;;;;;;;6.90;2.17;;;16.30;73.50;;;;;;5015733;28;20069;-75
2022/11/08 12:17:48;;;;;;;4.68;1.60;;;16.30;73.40;;;;;;5023913;28;20113;-75
2022/11/08 12:20:19;;;;;;;4.45;1.50;;;16.50;74.60;;;;;;5024602;28;20391;-76
2022/11/08 12:23:00;;;;;;;5.90;1.60;;;16.50;71.70;;;;;;5029934;28;20048;-75
2022/11/08 12:25:34;;;;;;;5.68;1.60;;;16.60;73.00;;;;;;5025442;28;20021;-76
2022/11/08 12:28:22;;;;;;;6.00;1.63;;;16.60;72.10;;;;;;5026785;28;20383;-75
2022/11/08 12:31:07;;;;;;;7.15;1.80;;;16.70;72.90;;;;;;5014159;28;20021;-74
2022/11/08 12:33:39;;;;;;;5.43;1.85;;;16.80;72.30;;;;;;5025220;28;20531;-75
2022/11/08 12:36:13;;;;;;;7.68;2.05;;;16.90;72.30;;;;;;5014682;28;20049;-75
2022/11/08 12:39:01;;;;;;;5.85;1.85;;;17.00;71.80;;;;;;5019593;28;20108;-75
2022/11/08 12:41:52;;;;;;;8.43;2.42;;;17.00;71.80;;;;;;5015886;28;20500;-75
2022/11/08 12:44:21;;;;;;;7.47;2.00;;;17.00;70.40;;;;;;5028008;28;20033;-76
2022/11/08 12:47:19;;;;;;;5.00;1.83;;;16.90;73.20;;;;;;5027638;28;20055;-74
2022/11/08 12:50:03;;;;;;;5.75;1.55;;;16.80;72.80;;;;;;5019791;28;20476;-75
2022/11/08 12:52:40;;;;;;;6.80;2.10;;;16.70;72.30;;;;;;5020629;28;20074;-75
2022/11/08 12:55:19;;;;;;;5.95;1.92;;;16.70;72.30;;;;;;5019479;28;20032;-75
2022/11/08 12:57:45;;;;;;;5.00;1.67;;;16.70;72.70;;;;;;5023881;28;20030;-75
2022/11/08 13:00:17;;;;;;;6.10;1.77;;;16.60;72.70;;;;;;5029934;28;20029;-74
2022/11/08 13:02:54;;;;;;;12.07;2.22;;;16.50;71.30;;;;;;5013932;28;20056;-75
2022/11/08 13:05:27;;;;;;;4.90;1.60;;;16.50;74.00;;;;;;5029791;28;20136;-74
2022/11/08 13:08:03;;;;;;;7.00;2.15;;;16.40;74.00;;;;;;5023297;28;20402;-75
2022/11/08 13:10:42;;;;;;;5.30;1.98;;;16.40;73.00;;;;;;5023935;28;20116;-74
2022/11/08 13:13:07;;;;;;;7.30;1.92;;;16.40;74.50;;;;;;5018471;28;20484;-75
2022/11/08 13:15:34;;;;;;;6.68;1.75;;;16.40;73.60;;;;;;5025888;28;20037;-74
2022/11/08 13:18:05;;;;;;;5.60;1.80;;;16.40;73.00;;;;;;5020870;28;20125;-75